Time;durP1;ratioP1;P1;durP2;ratioP2;P2;SDS_P1;SDS_P2;PMS_P1;PMS_P2;Temp;Humidity;BMP_temperature;BMP_pressure;BME280_temperature;BME280_humidity;BME280_pressure;Samples;Min_cycle;Max_cycle;Signal;HPM_P1;HPM_P2
2022/04/21 00:00:27;;;;;;;24.05;9.10;;;;;;;;;;5072333;28;20049;-63
2022/04/21 00:02:53;;;;;;;19.20;9.40;;;;;;;;;;5071001;28;20025;-57
2022/04/21 00:05:19;;;;;;;16.42;8.82;;;;;;;;;;5071585;28;20537;-56
2022/04/21 00:07:47;;;;;;;18.80;8.95;;;;;;;;;;5075177;28;20024;-57
2022/04/21 00:10:13;;;;;;;34.50;9.45;;;;;;;;;;5070989;28;20105;-57
2022/04/21 00:12:38;;;;;;;28.00;10.05;;;;;;;;;;5075893;28;20115;-57
2022/04/21 00:15:05;;;;;;;19.90;9.88;;;;;;;;;;5073553;28;20108;-57
2022/04/21 00:17:30;;;;;;;19.55;10.05;;;;;;;;;;5075138;28;20139;-56
2022/04/21 00:19:56;;;;;;;22.65;10.40;;;;;;;;;;5072547;28;20071;-56
2022/04/21 00:25:06;;;;;;;29.30;11.00;;;;;;;;;;5067829;28;20512;-56
2022/04/21 00:27:39;;;;;;;19.95;10.85;;;;;;;;;;5069230;28;20016;-56
2022/04/21 00:30:06;;;;;;;24.23;11.77;;;;;;;;;;5072804;28;20036;-56
2022/04/21 00:32:33;;;;;;;21.25;10.93;;;;;;;;;;5069489;28;20035;-56
2022/04/21 00:34:59;;;;;;;23.55;11.45;;;;;;;;;;5067889;28;20158;-56
2022/04/21 00:37:24;;;;;;;24.23;12.32;;;;;;;;;;5068910;28;20700;-56
2022/04/21 00:39:50;;;;;;;25.13;12.57;;;;;;;;;;5072625;28;20036;-57
2022/04/21 00:42:15;;;;;;;29.85;12.00;;;;;;;;;;5069885;28;20038;-56
2022/04/21 00:44:41;;;;;;;27.17;12.40;;;;;;;;;;5071475;28;20066;-56
2022/04/21 00:47:07;;;;;;;24.98;12.20;;;;;;;;;;5070175;28;20040;-56
2022/04/21 00:49:33;;;;;;;25.77;11.35;;;;;;;;;;5071510;28;20105;-56
2022/04/21 00:52:01;;;;;;;26.92;11.95;;;;;;;;;;5073964;28;20040;-57
2022/04/21 00:54:31;;;;;;;24.85;11.98;;;;;;;;;;5068243;28;20020;-56
2022/04/21 00:56:56;;;;;;;29.65;11.75;;;;;;;;;;5076882;28;20028;-56
2022/04/21 00:59:24;;;;;;;22.65;11.52;;;;;;;;;;5067235;28;20506;-56
2022/04/21 01:04:34;;;;;;;27.00;12.23;;;;;;;;;;5054115;28;20031;-56
2022/04/21 01:07:00;;;;;;;25.38;12.07;;;;;;;;;;5048171;28;20348;-56
2022/04/21 01:09:26;;;;;;;20.98;11.52;;;;;;;;;;5047046;28;20045;-56
2022/04/21 01:11:51;;;;;;;24.83;12.10;;;;;;;;;;5053242;28;20035;-56
2022/04/21 01:14:17;;;;;;;28.65;12.43;;;;;;;;;;5053736;28;20035;-56
2022/04/21 01:16:43;;;;;;;26.58;12.88;;;;;;;;;;5054618;28;20036;-56
2022/04/21 01:19:09;;;;;;;30.83;12.75;;;;;;;;;;5047546;28;20072;-56
2022/04/21 01:21:35;;;;;;;31.42;12.98;;;;;;;;;;5050526;28;20039;-56
2022/04/21 01:24:01;;;;;;;27.08;13.07;;;;;;;;;;5049794;28;20036;-56
2022/04/21 01:26:28;;;;;;;26.05;12.25;;;;;;;;;;5055945;28;20421;-56
2022/04/21 01:28:55;;;;;;;29.05;14.50;;;;;;;;;;5049861;28;20410;-56
2022/04/21 01:31:24;;;;;;;29.95;14.15;;;;;;;;;;5051456;28;20060;-56
2022/04/21 01:33:50;;;;;;;26.45;13.63;;;;;;;;;;5051225;28;20099;-56
2022/04/21 01:36:16;;;;;;;29.98;14.70;;;;;;;;;;5046013;28;20043;-56
2022/04/21 01:41:25;;;;;;;30.55;14.13;;;;;;;;;;5051025;28;20116;-55
2022/04/21 01:43:50;;;;;;;32.00;14.52;;;;;;;;;;5045915;28;20025;-56
2022/04/21 01:46:16;;;;;;;31.92;14.30;;;;;;;;;;5051571;28;22638;-56
2022/04/21 01:48:42;;;;;;;36.63;14.95;;;;;;;;;;5055912;28;20518;-56
2022/04/21 01:51:07;;;;;;;32.75;14.95;;;;;;;;;;5046556;28;20128;-56
2022/04/21 01:53:33;;;;;;;33.78;13.77;;;;;;;;;;5054568;28;20036;-57
2022/04/21 01:55:58;;;;;;;30.95;13.98;;;;;;;;;;5047561;28;20752;-55
2022/04/21 01:58:24;;;;;;;33.70;14.27;;;;;;;;;;5052985;28;20055;-56
2022/04/21 02:00:50;;;;;;;29.45;14.43;;;;;;;;;;5052505;28;20028;-56
2022/04/21 02:03:16;;;;;;;28.55;14.07;;;;;;;;;;5051639;28;20040;-56
2022/04/21 02:05:42;;;;;;;34.97;14.32;;;;;;;;;;5055563;28;20028;-56
2022/04/21 02:08:07;;;;;;;33.95;14.02;;;;;;;;;;5047181;28;20385;-56
2022/04/21 02:10:33;;;;;;;31.73;14.07;;;;;;;;;;5052387;28;20045;-57
2022/04/21 02:12:58;;;;;;;25.83;13.27;;;;;;;;;;5051060;28;20032;-57
2022/04/21 02:15:24;;;;;;;35.17;14.35;;;;;;;;;;5048056;28;20039;-57
2022/04/21 02:17:50;;;;;;;29.33;13.75;;;;;;;;;;5051101;28;20044;-55
2022/04/21 02:20:17;;;;;;;30.88;14.25;;;;;;;;;;5050504;28;20099;-56
2022/04/21 02:22:45;;;;;;;28.55;13.57;;;;;;;;;;5052014;28;20032;-55
2022/04/21 02:25:13;;;;;;;37.10;14.38;;;;;;;;;;5050038;28;20040;-56
2022/04/21 02:27:41;;;;;;;32.03;14.32;;;;;;;;;;5047548;28;20466;-55
2022/04/21 02:30:08;;;;;;;30.25;15.25;;;;;;;;;;5048066;28;20056;-54
2022/04/21 02:32:34;;;;;;;32.38;15.52;;;;;;;;;;5046369;28;20369;-56
2022/04/21 02:35:00;;;;;;;31.38;15.07;;;;;;;;;;5045685;28;20028;-55
2022/04/21 02:37:25;;;;;;;31.58;15.80;;;;;;;;;;5052922;28;20058;-55
2022/04/21 02:39:51;;;;;;;31.85;15.30;;;;;;;;;;5047826;28;20138;-55
2022/04/21 02:42:19;;;;;;;36.22;14.98;;;;;;;;;;5051829;28;20037;-55
2022/04/21 02:44:45;;;;;;;36.03;15.20;;;;;;;;;;5051678;28;20040;-55
2022/04/21 02:47:10;;;;;;;33.55;14.32;;;;;;;;;;5053573;28;20511;-55
2022/04/21 02:49:37;;;;;;;30.52;14.32;;;;;;;;;;5053920;28;20044;-55
2022/04/21 02:52:07;;;;;;;33.53;14.82;;;;;;;;;;5053487;28;20119;-55
2022/04/21 02:57:20;;;;;;;31.13;14.45;;;;;;;;;;5058568;28;20140;-55
2022/04/21 02:59:54;;;;;;;30.02;14.50;;;;;;;;;;5049787;28;20029;-55
2022/04/21 03:02:21;;;;;;;34.10;14.05;;;;;;;;;;5052634;28;20029;-55
2022/04/21 03:04:47;;;;;;;36.85;14.38;;;;;;;;;;5055224;28;22947;-55
2022/04/21 03:07:13;;;;;;;36.13;15.77;;;;;;;;;;5051844;28;20009;-55
2022/04/21 03:09:40;;;;;;;35.30;14.77;;;;;;;;;;5053367;28;20040;-54
2022/04/21 03:12:07;;;;;;;33.55;14.00;;;;;;;;;;5058800;28;20487;-55
2022/04/21 03:14:35;;;;;;;30.88;14.80;;;;;;;;;;5054170;28;20047;-55
2022/04/21 03:17:01;;;;;;;31.55;15.38;;;;;;;;;;5057262;28;20041;-56
2022/04/21 03:19:26;;;;;;;37.35;15.13;;;;;;;;;;5052866;28;20353;-60
2022/04/21 03:24:37;;;;;;;47.53;17.50;;;;;;;;;;5060504;28;20044;-62
2022/04/21 03:27:03;;;;;;;37.20;17.08;;;;;;;;;;5058214;28;20039;-62
2022/04/21 03:29:29;;;;;;;38.35;16.70;;;;;;;;;;5052513;28;20033;-62
2022/04/21 03:31:54;;;;;;;40.28;18.27;;;;;;;;;;5055459;28;20037;-55
2022/04/21 03:34:20;;;;;;;44.45;18.45;;;;;;;;;;5047350;28;20028;-56
2022/04/21 03:36:48;;;;;;;35.88;17.73;;;;;;;;;;5055540;28;20484;-55
2022/04/21 03:39:18;;;;;;;35.10;16.33;;;;;;;;;;5051819;28;20525;-55
2022/04/21 03:41:44;;;;;;;45.47;16.85;;;;;;;;;;5048339;28;20086;-55
2022/04/21 03:44:11;;;;;;;41.67;17.42;;;;;;;;;;5047886;28;20101;-55
2022/04/21 03:46:38;;;;;;;33.70;16.73;;;;;;;;;;5052907;28;20064;-55
2022/04/21 03:49:04;;;;;;;36.60;17.70;;;;;;;;;;5054131;28;20037;-56
2022/04/21 03:51:31;;;;;;;36.65;18.33;;;;;;;;;;5049829;28;20039;-55
2022/04/21 03:53:56;;;;;;;39.13;18.63;;;;;;;;;;5057183;28;20040;-55
2022/04/21 03:56:22;;;;;;;49.85;19.33;;;;;;;;;;5051382;28;20116;-55
2022/04/21 03:58:48;;;;;;;45.83;20.48;;;;;;;;;;5058858;28;20089;-55
2022/04/21 04:01:13;;;;;;;44.50;18.13;;;;;;;;;;5050505;28;20029;-55
2022/04/21 04:03:39;;;;;;;38.67;18.38;;;;;;;;;;5050266;28;20679;-55
2022/04/21 04:10:51;;;;;;;44.10;18.30;;;;;;;;;;5054214;28;20477;-56
2022/04/21 04:11:35;;;;;;;41.97;17.30;;;;;;;;;;5055761;28;20395;-55
2022/04/21 04:14:00;;;;;;;39.38;17.45;;;;;;;;;;5056091;28;20403;-55
2022/04/21 04:16:26;;;;;;;45.15;19.02;;;;;;;;;;5051633;28;20049;-55
2022/04/21 04:18:52;;;;;;;33.17;17.27;;;;;;;;;;5052155;28;20606;-56
2022/04/21 04:21:17;;;;;;;37.30;17.00;;;;;;;;;;5054531;28;20040;-55
2022/04/21 04:23:42;;;;;;;39.83;18.13;;;;;;;;;;5050957;28;20032;-57
2022/04/21 04:26:08;;;;;;;37.80;16.85;;;;;;;;;;5054036;28;20032;-58
2022/04/21 04:28:34;;;;;;;43.30;16.83;;;;;;;;;;5052475;28;20498;-57
2022/04/21 04:30:59;;;;;;;35.35;16.65;;;;;;;;;;5050728;28;20059;-56
2022/04/21 04:33:25;;;;;;;35.25;16.77;;;;;;;;;;5049769;28;20060;-55
2022/04/21 04:35:51;;;;;;;36.97;16.63;;;;;;;;;;5051055;28;20070;-56
2022/04/21 04:38:16;;;;;;;33.83;15.65;;;;;;;;;;5050555;28;20064;-56
2022/04/21 04:40:41;;;;;;;37.35;14.90;;;;;;;;;;5053771;28;20029;-56
2022/04/21 04:43:07;;;;;;;32.53;15.88;;;;;;;;;;5050817;28;20025;-55
2022/04/21 04:48:16;;;;;;;32.50;14.60;;;;;;;;;;5055236;28;20552;-55
2022/04/21 04:50:42;;;;;;;31.38;14.07;;;;;;;;;;5047170;28;20040;-54
2022/04/21 04:53:07;;;;;;;36.03;15.27;;;;;;;;;;5047829;28;20041;-57
2022/04/21 04:55:33;;;;;;;31.38;15.02;;;;;;;;;;5049619;28;20028;-57
2022/04/21 04:57:58;;;;;;;30.17;14.52;;;;;;;;;;5050559;28;20082;-57
2022/04/21 05:00:24;;;;;;;34.03;16.40;;;;;;;;;;5051320;28;20480;-56
2022/04/21 05:02:50;;;;;;;32.40;15.10;;;;;;;;;;5047963;28;20048;-56
2022/04/21 05:05:15;;;;;;;39.20;14.88;;;;;;;;;;5049538;28;20047;-56
2022/04/21 05:07:41;;;;;;;32.72;14.32;;;;;;;;;;5048486;28;20028;-57
2022/04/21 05:10:07;;;;;;;38.03;14.85;;;;;;;;;;5050703;28;20060;-56
2022/04/21 05:12:33;;;;;;;31.08;14.30;;;;;;;;;;5058020;28;20429;-56
2022/04/21 05:14:58;;;;;;;32.35;14.75;;;;;;;;;;5051002;28;20063;-56
2022/04/21 05:17:25;;;;;;;33.60;13.73;;;;;;;;;;5053452;28;20037;-56
2022/04/21 05:19:52;;;;;;;33.97;14.52;;;;;;;;;;5058195;28;20032;-57
2022/04/21 05:22:18;;;;;;;42.53;15.63;;;;;;;;;;5046351;28;20036;-56
2022/04/21 05:24:52;;;;;;;38.42;15.52;;;;;;;;;;5046443;28;20134;-56
2022/04/21 05:27:17;;;;;;;31.33;14.50;;;;;;;;;;5052852;28;20028;-56
2022/04/21 05:32:28;;;;;;;30.40;13.93;;;;;;;;;;5052658;28;20031;-57
2022/04/21 05:34:54;;;;;;;30.95;13.75;;;;;;;;;;5050530;28;20531;-56
2022/04/21 05:37:20;;;;;;;27.30;13.43;;;;;;;;;;5052292;28;20044;-56
2022/04/21 05:39:46;;;;;;;32.63;13.80;;;;;;;;;;5057632;28;20270;-56
2022/04/21 05:42:22;;;;;;;32.50;14.27;;;;;;;;;;5052234;28;20892;-56
2022/04/21 05:44:52;;;;;;;26.30;13.68;;;;;;;;;;5054782;28;20081;-56
2022/04/21 05:47:18;;;;;;;28.98;13.93;;;;;;;;;;5054054;28;20078;-57
2022/04/21 05:49:44;;;;;;;26.52;12.48;;;;;;;;;;5050141;28;20036;-57
2022/04/21 05:52:12;;;;;;;29.05;13.38;;;;;;;;;;5050290;28;20503;-56
2022/04/21 05:54:38;;;;;;;33.08;13.23;;;;;;;;;;5047448;28;20044;-55
2022/04/21 05:57:04;;;;;;;32.53;13.10;;;;;;;;;;5054721;28;20093;-56
2022/04/21 05:59:30;;;;;;;26.38;12.68;;;;;;;;;;5049134;28;20547;-57
2022/04/21 06:01:55;;;;;;;26.90;12.20;;;;;;;;;;5047237;28;20123;-56
2022/04/21 06:04:23;;;;;;;28.05;10.70;;;;;;;;;;5048277;28;20035;-57
2022/04/21 06:06:49;;;;;;;26.02;11.50;;;;;;;;;;5052431;28;20028;-57
2022/04/21 06:09:15;;;;;;;73.15;17.90;;;;;;;;;;5057843;28;20054;-56
2022/04/21 06:11:43;;;;;;;24.88;11.93;;;;;;;;;;5049459;28;20033;-56
2022/04/21 06:14:08;;;;;;;23.85;11.02;;;;;;;;;;5056017;28;20089;-56
2022/04/21 06:16:34;;;;;;;21.52;10.93;;;;;;;;;;5049996;28;20083;-56
2022/04/21 06:18:59;;;;;;;28.05;10.75;;;;;;;;;;5057247;28;20098;-56
2022/04/21 06:21:25;;;;;;;21.73;10.20;;;;;;;;;;5052558;28;20114;-56
2022/04/21 06:23:50;;;;;;;29.63;11.30;;;;;;;;;;5052998;28;20047;-56
2022/04/21 06:26:17;;;;;;;24.60;10.00;;;;;;;;;;5048687;28;20025;-56
2022/04/21 06:31:13;;;;;;;21.25;9.60;;;;;;;;;;5044575;28;20053;-82
2022/04/21 06:33:38;;;;;;;28.42;10.02;;;;;;;;;;5027438;28;20032;-76
2022/04/21 06:36:06;;;;;;;27.48;10.18;;;;;;;;;;5010322;28;20032;-76
2022/04/21 06:38:31;;;;;;;21.95;8.93;;;;;;;;;;5011376;28;20033;-82
2022/04/21 06:40:57;;;;;;;18.17;9.13;;;;;;;;;;5045222;28;20403;-75
2022/04/21 06:48:50;;;;;;;21.27;9.90;;;;;;;;;;5042127;28;20067;-76
2022/04/21 06:51:18;;;;;;;21.42;8.77;;;;;;;;;;5046157;28;20057;-76
2022/04/21 06:53:44;;;;;;;29.85;9.45;;;;;;;;;;5038297;28;20024;-82
2022/04/21 06:56:13;;;;;;;19.02;8.98;;;;;;;;;;5019439;28;20713;-82
2022/04/21 06:58:40;;;;;;;23.38;8.50;;;;;;;;;;5025260;28;20033;-82
2022/04/21 07:01:06;;;;;;;24.30;9.80;;;;;;;;;;5039448;28;20037;-82
2022/04/21 07:03:33;;;;;;;24.63;9.15;;;;;;;;;;5047956;28;20072;-81
2022/04/21 07:06:00;;;;;;;19.25;8.02;;;;;;;;;;5040854;28;20086;-76
2022/04/21 07:08:26;;;;;;;17.98;8.27;;;;;;;;;;5007773;28;20025;-77
2022/04/21 07:10:52;;;;;;;22.67;8.25;;;;;;;;;;5029066;28;20189;-75
2022/04/21 07:13:18;;;;;;;33.15;9.10;;;;;;;;;;5045885;28;20041;-75
2022/04/21 07:15:44;;;;;;;22.70;8.23;;;;;;;;;;5042807;28;20028;-75
2022/04/21 07:18:11;;;;;;;16.00;7.60;;;;;;;;;;5029315;28;20033;-75
2022/04/21 07:20:37;;;;;;;16.73;7.25;;;;;;;;;;5021871;28;20035;-74
2022/04/21 07:23:03;;;;;;;15.15;6.47;;;;;;;;;;5044231;28;20104;-76
2022/04/21 07:25:32;;;;;;;19.60;7.35;;;;;;;;;;5010370;28;20025;-75
2022/04/21 07:27:57;;;;;;;17.88;7.00;;;;;;;;;;5030550;28;20037;-75
2022/04/21 07:30:23;;;;;;;19.45;6.60;;;;;;;;;;5042750;28;20052;-75
2022/04/21 07:32:48;;;;;;;30.20;6.47;;;;;;;;;;5040015;28;20036;-75
2022/04/21 07:35:15;;;;;;;17.63;6.97;;;;;;;;;;4996759;28;20036;-75
2022/04/21 07:37:40;;;;;;;17.45;6.55;;;;;;;;;;5049925;28;20111;-75
2022/04/21 07:40:06;;;;;;;18.23;5.63;;;;;;;;;;5019471;28;20033;-75
2022/04/21 07:42:32;;;;;;;15.50;6.15;;;;;;;;;;5016278;28;20032;-76
2022/04/21 07:45:02;;;;;;;28.55;6.70;;;;;;;;;;5042112;28;20040;-81
2022/04/21 07:47:28;;;;;;;15.68;5.47;;;;;;;;;;5044090;28;20052;-75
2022/04/21 07:49:53;;;;;;;12.75;5.32;;;;;;;;;;5018980;28;20024;-75
2022/04/21 07:55:18;;;;;;;12.27;5.15;;;;;;;;;;5050623;28;20076;-81
2022/04/21 07:57:45;;;;;;;16.02;5.60;;;;;;;;;;5037577;28;20097;-82
2022/04/21 08:00:12;;;;;;;11.77;5.40;;;;;;;;;;5037245;28;20040;-75
2022/04/21 08:02:39;;;;;;;13.93;5.53;;;;;;;;;;5016439;28;20035;-76
2022/04/21 08:05:05;;;;;;;17.13;5.38;;;;;;;;;;5027774;28;20025;-76
2022/04/21 08:07:31;;;;;;;22.33;5.53;;;;;;;;;;5028905;28;20125;-76
2022/04/21 08:09:57;;;;;;;10.80;4.80;;;;;;;;;;5033134;28;20112;-76
2022/04/21 08:12:22;;;;;;;15.18;5.88;;;;;;;;;;5026640;28;20021;-76
2022/04/21 08:14:48;;;;;;;17.08;5.35;;;;;;;;;;5046520;28;20033;-75
2022/04/21 08:17:13;;;;;;;15.60;4.28;;;;;;;;;;5041939;28;20021;-75
2022/04/21 08:19:39;;;;;;;10.98;4.38;;;;;;;;;;5017497;28;20496;-75
2022/04/21 08:22:04;;;;;;;10.88;4.32;;;;;;;;;;5041486;28;20115;-76
2022/04/21 08:32:45;;;;;;;20.85;6.38;;;;;;;;;;5041144;28;20038;-76
2022/04/21 08:35:13;;;;;;;13.68;3.92;;;;;;;;;;5043713;28;20164;-76
2022/04/21 08:37:45;;;;;;;9.98;4.40;;;;;;;;;;5045853;28;20025;-75
2022/04/21 08:40:11;;;;;;;11.63;4.60;;;;;;;;;;5024432;28;20520;-76
2022/04/21 08:42:40;;;;;;;17.83;3.83;;;;;;;;;;5042711;28;20064;-76
2022/04/21 08:45:08;;;;;;;14.35;4.10;;;;;;;;;;5051046;28;20021;-76
2022/04/21 08:47:35;;;;;;;18.50;4.30;;;;;;;;;;5049186;28;20028;-76
2022/04/21 08:50:11;;;;;;;16.92;5.13;;;;;;;;;;5027151;28;20056;-76
2022/04/21 08:52:38;;;;;;;9.38;4.18;;;;;;;;;;5034644;28;20120;-75
2022/04/21 08:55:04;;;;;;;13.85;4.28;;;;;;;;;;5031983;28;20029;-81
2022/04/21 08:57:30;;;;;;;8.68;4.10;;;;;;;;;;5052993;28;20047;-81
2022/04/21 08:59:59;;;;;;;18.15;5.18;;;;;;;;;;5051020;28;20028;-81
2022/04/21 09:02:35;;;;;;;11.68;4.78;;;;;;;;;;5020896;28;20044;-82
2022/04/21 09:05:02;;;;;;;24.05;5.65;;;;;;;;;;5037190;28;20033;-81
2022/04/21 09:07:28;;;;;;;11.57;5.03;;;;;;;;;;5049917;28;20158;-76
2022/04/21 09:10:00;;;;;;;21.30;6.18;;;;;;;;;;5048131;28;20041;-76
2022/04/21 09:12:25;;;;;;;16.25;5.32;;;;;;;;;;5042314;28;20094;-76
2022/04/21 09:14:51;;;;;;;17.10;6.07;;;;;;;;;;5007645;28;20089;-75
2022/04/21 09:17:16;;;;;;;12.35;5.15;;;;;;;;;;5043449;28;20028;-75
2022/04/21 09:19:56;;;;;;;18.20;5.82;;;;;;;;;;5004941;28;20037;-75
2022/04/21 09:22:22;;;;;;;20.27;7.25;;;;;;;;;;5037575;28;20033;-75
2022/04/21 09:24:51;;;;;;;22.90;5.80;;;;;;;;;;5041131;28;20664;-76
2022/04/21 09:27:17;;;;;;;17.95;4.95;;;;;;;;;;5039709;28;20520;-75
2022/04/21 09:29:43;;;;;;;16.00;5.35;;;;;;;;;;5042784;28;20175;-76
2022/04/21 09:32:08;;;;;;;18.85;5.30;;;;;;;;;;5005086;28;20037;-76
2022/04/21 09:34:35;;;;;;;20.40;5.68;;;;;;;;;;5009443;28;20037;-75
2022/04/21 09:37:03;;;;;;;12.13;4.35;;;;;;;;;;5026726;28;20504;-76
2022/04/21 09:39:28;;;;;;;20.98;5.70;;;;;;;;;;5048076;28;20021;-75
2022/04/21 09:41:54;;;;;;;18.20;5.60;;;;;;;;;;5039807;28;20391;-76
2022/04/21 09:47:17;;;;;;;18.23;5.80;;;;;;;;;;5050198;28;20114;-81
2022/04/21 09:49:42;;;;;;;18.52;5.57;;;;;;;;;;5051442;28;20021;-81
2022/04/21 09:52:08;;;;;;;16.52;5.38;;;;;;;;;;5038895;28;20414;-81
2022/04/21 09:54:36;;;;;;;17.27;5.75;;;;;;;;;;5044310;28;20029;-82
2022/04/21 09:57:03;;;;;;;18.48;5.28;;;;;;;;;;5049571;28;20124;-81
2022/04/21 09:59:35;;;;;;;20.95;5.70;;;;;;;;;;5049941;28;20907;-74
2022/04/21 10:02:02;;;;;;;18.73;5.03;;;;;;;;;;5047654;28;20033;-75
2022/04/21 10:04:29;;;;;;;27.80;5.28;;;;;;;;;;5040500;28;20305;-81
2022/04/21 10:06:56;;;;;;;18.80;4.90;;;;;;;;;;5040985;28;20037;-80
2022/04/21 10:09:23;;;;;;;19.50;4.57;;;;;;;;;;5047877;28;20028;-82
2022/04/21 10:11:50;;;;;;;23.15;5.10;;;;;;;;;;5044807;28;20033;-81
2022/04/21 10:14:17;;;;;;;14.77;4.82;;;;;;;;;;5050948;28;20025;-81
2022/04/21 10:16:43;;;;;;;15.98;5.30;;;;;;;;;;5044509;28;20070;-79
2022/04/21 10:19:10;;;;;;;14.68;4.65;;;;;;;;;;5049420;28;20086;-81
2022/04/21 10:21:42;;;;;;;14.50;5.20;;;;;;;;;;5043628;28;20032;-78
2022/04/21 10:24:09;;;;;;;15.27;4.88;;;;;;;;;;5042550;28;20088;-76
2022/04/21 10:26:39;;;;;;;14.43;5.68;;;;;;;;;;5028644;28;20059;-75
2022/04/21 10:29:19;;;;;;;23.23;5.45;;;;;;;;;;5034431;28;20025;-75
2022/04/21 10:31:59;;;;;;;11.05;4.97;;;;;;;;;;5043948;28;20032;-76
2022/04/21 10:34:43;;;;;;;17.30;4.68;;;;;;;;;;5041407;28;20061;-76
2022/04/21 10:37:21;;;;;;;15.65;5.22;;;;;;;;;;5011426;28;20033;-74
2022/04/21 10:39:59;;;;;;;17.52;4.97;;;;;;;;;;5029616;28;20032;-75
2022/04/21 10:42:24;;;;;;;19.70;5.95;;;;;;;;;;5046953;28;20055;-76
2022/04/21 10:44:54;;;;;;;20.92;6.55;;;;;;;;;;5037701;28;20049;-74
2022/04/21 10:47:38;;;;;;;20.20;6.50;;;;;;;;;;5034921;28;20057;-76
2022/04/21 10:50:19;;;;;;;18.00;6.00;;;;;;;;;;5036037;28;20032;-76
2022/04/21 10:58:34;;;;;;;15.15;6.32;;;;;;;;;;5046510;28;20029;-81
2022/04/21 11:01:31;;;;;;;20.70;6.65;;;;;;;;;;5054048;28;20094;-78
2022/04/21 11:04:08;;;;;;;24.40;6.97;;;;;;;;;;5050096;28;20047;-81
2022/04/21 11:06:41;;;;;;;21.13;7.28;;;;;;;;;;5038498;28;20078;-80
2022/04/21 11:09:07;;;;;;;18.08;6.68;;;;;;;;;;5019335;28;20032;-75
2022/04/21 11:11:52;;;;;;;28.35;7.15;;;;;;;;;;5042982;28;20446;-75
2022/04/21 11:14:32;;;;;;;18.17;6.80;;;;;;;;;;5036755;28;20062;-75
2022/04/21 11:16:59;;;;;;;25.73;7.90;;;;;;;;;;5052069;28;20032;-75
2022/04/21 11:19:31;;;;;;;26.08;7.63;;;;;;;;;;5028047;28;20086;-76
2022/04/21 11:22:01;;;;;;;23.42;6.75;;;;;;;;;;5041427;28;20028;-75
2022/04/21 11:24:27;;;;;;;15.30;6.38;;;;;;;;;;5008966;28;20472;-75
2022/04/21 11:26:54;;;;;;;22.40;7.07;;;;;;;;;;5039473;28;20104;-76
2022/04/21 11:29:19;;;;;;;23.23;6.25;;;;;;;;;;5045838;28;20527;-75
2022/04/21 11:31:45;;;;;;;21.88;7.40;;;;;;;;;;5040352;28;20051;-76
2022/04/21 11:34:11;;;;;;;19.52;6.90;;;;;;;;;;5047281;28;20029;-76
2022/04/21 11:36:40;;;;;;;20.20;7.45;;;;;;;;;;5047944;28;20029;-74
2022/04/21 11:39:12;;;;;;;15.32;6.47;;;;;;;;;;5022042;28;20095;-76
2022/04/21 11:41:44;;;;;;;;;;;;;;;;;;5035033;28;20091;-76
2022/04/21 11:44:20;;;;;;;23.08;8.85;;;;;;;;;;5047353;28;20367;-76
2022/04/21 11:46:46;;;;;;;18.42;7.95;;;;;;;;;;5046198;28;20029;-76
2022/04/21 11:49:11;;;;;;;32.13;8.70;;;;;;;;;;5014234;28;20124;-76
2022/04/21 11:51:37;;;;;;;28.30;7.53;;;;;;;;;;5030675;28;20115;-75
2022/04/21 11:54:06;;;;;;;29.50;8.50;;;;;;;;;;5035668;28;20111;-81
2022/04/21 11:56:32;;;;;;;30.15;9.60;;;;;;;;;;5029626;28;20025;-81
2022/04/21 11:59:06;;;;;;;32.60;9.43;;;;;;;;;;5047997;28;20033;-79
2022/04/21 12:07:01;;;;;;;31.60;9.70;;;;;;;;;;5050773;28;20043;-80
2022/04/21 12:09:33;;;;;;;29.35;9.18;;;;;;;;;;5025824;28;20028;-81
2022/04/21 12:12:00;;;;;;;50.90;10.45;;;;;;;;;;5052235;28;20036;-80
2022/04/21 12:14:27;;;;;;;32.88;10.75;;;;;;;;;;5052273;28;20052;-80
2022/04/21 12:16:57;;;;;;;32.42;10.82;;;;;;;;;;5039642;28;20021;-80
2022/04/21 12:19:28;;;;;;;38.60;10.93;;;;;;;;;;5024308;28;20040;-78
2022/04/21 12:22:17;;;;;;;33.63;11.40;;;;;;;;;;5037934;28;20472;-80
2022/04/21 12:24:46;;;;;;;37.13;11.75;;;;;;;;;;5051957;28;20029;-81
2022/04/21 12:27:17;;;;;;;39.95;11.45;;;;;;;;;;5053048;28;20033;-81
2022/04/21 12:30:00;;;;;;;30.55;11.32;;;;;;;;;;5048933;28;20060;-79
2022/04/21 12:32:33;;;;;;;31.50;11.40;;;;;;;;;;5044013;28;20642;-81
2022/04/21 12:35:03;;;;;;;42.75;12.25;;;;;;;;;;5046130;28;20036;-81
2022/04/21 12:37:31;;;;;;;29.63;10.48;;;;;;;;;;5041969;28;20021;-75
2022/04/21 12:39:58;;;;;;;37.63;11.30;;;;;;;;;;5038500;28;20021;-76
2022/04/21 12:42:23;;;;;;;25.63;10.40;;;;;;;;;;5024859;28;20025;-75
2022/04/21 12:44:50;;;;;;;33.70;11.45;;;;;;;;;;5043647;28;20020;-75
2022/04/21 12:47:22;;;;;;;27.30;10.93;;;;;;;;;;5031851;28;20081;-75
2022/04/21 12:49:55;;;;;;;34.72;11.48;;;;;;;;;;5026815;28;20041;-75
2022/04/21 12:52:47;;;;;;;27.73;10.00;;;;;;;;;;5041614;28;20544;-74
2022/04/21 12:55:22;;;;;;;;;;;;;;;;;;5041032;28;20024;-76
2022/04/21 12:58:11;;;;;;;32.45;11.02;;;;;;;;;;5040153;28;19913;-76
2022/04/21 13:00:40;;;;;;;35.92;10.52;;;;;;;;;;5049469;28;20032;-75
2022/04/21 13:03:10;;;;;;;28.30;12.13;;;;;;;;;;5042370;28;20025;-76
2022/04/21 13:05:49;;;;;;;24.65;11.20;;;;;;;;;;5035677;28;20049;-76
2022/04/21 13:08:15;;;;;;;36.60;10.60;;;;;;;;;;5046977;28;20036;-76
2022/04/21 13:10:40;;;;;;;29.52;11.25;;;;;;;;;;5023452;28;20032;-75
2022/04/21 13:13:06;;;;;;;30.98;10.38;;;;;;;;;;5041770;28;20036;-76
2022/04/21 13:15:32;;;;;;;26.90;10.27;;;;;;;;;;5049672;28;20612;-76
2022/04/21 13:17:57;;;;;;;26.35;10.98;;;;;;;;;;5020297;28;20040;-75
2022/04/21 13:23:07;;;;;;;30.10;10.43;;;;;;;;;;5036546;28;20052;-82
2022/04/21 13:25:32;;;;;;;28.38;10.07;;;;;;;;;;5017691;28;20033;-81
2022/04/21 13:27:58;;;;;;;31.73;10.32;;;;;;;;;;5031048;28;20041;-81
2022/04/21 13:30:24;;;;;;;29.38;10.23;;;;;;;;;;5035636;28;20052;-81
2022/04/21 13:35:33;;;;;;;28.48;11.05;;;;;;;;;;5047704;28;20051;-82
2022/04/21 13:37:59;;;;;;;28.02;10.55;;;;;;;;;;5050899;28;20033;-82
2022/04/21 13:40:24;;;;;;;30.55;10.85;;;;;;;;;;5015484;28;20033;-80
2022/04/21 13:42:50;;;;;;;27.77;10.23;;;;;;;;;;5019203;28;20513;-79
2022/04/21 13:45:15;;;;;;;34.40;11.02;;;;;;;;;;5039331;28;20108;-79
2022/04/21 13:47:41;;;;;;;30.42;9.93;;;;;;;;;;5033729;28;20032;-81
2022/04/21 13:50:07;;;;;;;24.70;10.68;;;;;;;;;;5017235;28;20037;-82
2022/04/21 13:52:35;;;;;;;23.23;10.30;;;;;;;;;;5034252;28;20017;-81
2022/04/21 13:55:01;;;;;;;28.67;10.20;;;;;;;;;;5048099;28;20123;-82
2022/04/21 13:57:26;;;;;;;27.90;9.95;;;;;;;;;;5013614;28;20144;-81
2022/04/21 13:59:52;;;;;;;42.33;10.27;;;;;;;;;;5008394;28;20040;-81
2022/04/21 14:02:17;;;;;;;34.47;10.07;;;;;;;;;;5033872;28;20553;-81
2022/04/21 14:04:43;;;;;;;31.08;10.30;;;;;;;;;;5039814;28;20029;-76
2022/04/21 14:07:08;;;;;;;35.88;11.55;;;;;;;;;;5043524;28;21141;-75
2022/04/21 14:09:34;;;;;;;33.90;11.73;;;;;;;;;;5026256;28;20040;-76
2022/04/21 14:11:59;;;;;;;32.75;10.02;;;;;;;;;;5035906;28;20109;-75
2022/04/21 14:14:28;;;;;;;34.85;9.68;;;;;;;;;;5035411;28;20025;-75
2022/04/21 14:16:54;;;;;;;36.15;9.23;;;;;;;;;;5008417;28;20029;-75
2022/04/21 14:19:19;;;;;;;30.65;10.02;;;;;;;;;;5035935;28;20461;-75
2022/04/21 14:21:46;;;;;;;26.33;8.85;;;;;;;;;;5038995;28;20033;-75
2022/04/21 14:24:12;;;;;;;29.83;11.18;;;;;;;;;;4995846;28;20037;-76
2022/04/21 14:26:37;;;;;;;34.22;10.25;;;;;;;;;;5009587;28;20488;-76
2022/04/21 14:29:05;;;;;;;26.45;9.25;;;;;;;;;;5013992;28;20036;-75
2022/04/21 14:31:30;;;;;;;22.27;8.10;;;;;;;;;;5028864;28;20487;-76
2022/04/21 14:33:56;;;;;;;26.23;8.35;;;;;;;;;;5044224;28;20033;-76
2022/04/21 14:36:21;;;;;;;19.63;8.18;;;;;;;;;;5026702;28;20629;-76
2022/04/21 14:44:15;;;;;;;29.33;8.20;;;;;;;;;;5048538;28;20032;-76
2022/04/21 14:46:44;;;;;;;28.10;6.82;;;;;;;;;;5039439;28;20021;-73
2022/04/21 14:49:11;;;;;;;25.67;7.70;;;;;;;;;;5034147;28;20032;-74
2022/04/21 14:51:38;;;;;;;18.63;6.60;;;;;;;;;;5030112;28;20047;-76
2022/04/21 14:54:05;;;;;;;17.45;7.07;;;;;;;;;;5016854;28;20111;-75
2022/04/21 14:56:32;;;;;;;16.33;6.72;;;;;;;;;;5045896;28;20024;-75
2022/04/21 14:58:58;;;;;;;16.75;6.97;;;;;;;;;;5046980;28;20037;-74
2022/04/21 15:01:24;;;;;;;28.90;7.05;;;;;;;;;;5033902;28;20033;-76
2022/04/21 15:03:49;;;;;;;22.23;6.38;;;;;;;;;;5049918;28;20445;-76
2022/04/21 15:06:15;;;;;;;29.13;8.32;;;;;;;;;;5025742;28;20186;-76
2022/04/21 15:08:41;;;;;;;29.85;6.90;;;;;;;;;;5031624;28;20038;-76
2022/04/21 15:11:06;;;;;;;22.20;5.38;;;;;;;;;;5042880;28;20515;-76
2022/04/21 15:13:34;;;;;;;16.33;6.13;;;;;;;;;;5050033;28;20531;-76
2022/04/21 15:16:00;;;;;;;20.95;6.00;;;;;;;;;;5045069;28;20033;-76
2022/04/21 15:18:26;;;;;;;15.10;5.88;;;;;;;;;;5019955;28;20009;-76
2022/04/21 15:20:52;;;;;;;22.25;6.03;;;;;;;;;;5037681;28;20032;-76
2022/04/21 15:23:17;;;;;;;20.40;5.00;;;;;;;;;;5027522;28;20040;-76
2022/04/21 15:25:43;;;;;;;12.57;5.05;;;;;;;;;;5046123;28;20091;-73
2022/04/21 15:28:10;;;;;;;25.33;5.18;;;;;;;;;;5048141;28;20076;-76
2022/04/21 15:30:37;;;;;;;16.65;5.38;;;;;;;;;;5046256;28;20414;-75